Terminal Aerodrome Forecast
Issued by NWS

Home | Current Version | Previous Version | Graphics & Text | Print | Product List | Glossary Off
Versions: 1 2 3 4 5 6 7 8 9 10 11 12 13 14 15 16 17 18 19 20 21 22 23 24 25 26 27 28 29 30 31 32 33 34 35 36

892
FTUS43 KDDC 221120
TAFGCK
TAF
KGCK 221120Z 2212/2312 08003KT P6SM FEW060 FEW110
     FM221500 26007KT P6SM VCSH OVC040
     FM221800 34010KT P6SM VCSH BKN070
     FM230000 VRB06KT P6SM SCT060 BKN200
     FM230300 35015G25KT P6SM BKN060=

USA.gov is the U.S. government's official web portal to all federal, state and local government web resources and services.